Time;durP1;ratioP1;P1;durP2;ratioP2;P2;SDS_P1;SDS_P2;PMS_P1;PMS_P2;Temp;Humidity;BMP_temperature;BMP_pressure;BME280_temperature;BME280_humidity;BME280_pressure;Samples;Min_cycle;Max_cycle;Signal;HPM_P1;HPM_P2
2024/02/27 00:01:56;;;;;;;159.60;94.20;;;;;;;5.18;100.00;98328.07;109291;1254;61598;-75
2024/02/27 00:04:22;;;;;;;123.20;81.30;;;;;;;5.19;100.00;98326.09;109305;1254;67965;-73
2024/02/27 00:06:51;;;;;;;99.20;69.70;;;;;;;5.18;100.00;98328.39;108925;1254;60033;-74
2024/02/27 00:09:18;;;;;;;96.80;71.70;;;;;;;5.20;100.00;98328.80;109297;1255;63186;-74
2024/02/27 00:11:45;;;;;;;85.60;64.00;;;;;;;5.20;100.00;98328.10;109303;1254;59908;-74
2024/02/27 00:14:12;;;;;;;89.60;68.70;;;;;;;5.16;100.00;98328.73;109290;1254;59784;-74
2024/02/27 00:16:38;;;;;;;92.10;71.20;;;;;;;5.11;100.00;98331.45;109291;1254;67937;-73
2024/02/27 00:19:06;;;;;;;89.50;64.30;;;;;;;5.09;100.00;98328.05;109254;1255;59892;-74
2024/02/27 00:21:36;;;;;;;77.80;59.00;;;;;;;5.05;100.00;98327.71;109247;1256;65162;-73
2024/02/27 00:24:03;;;;;;;86.60;61.90;;;;;;;4.99;100.00;98328.40;109197;1255;59878;-75
2024/02/27 00:26:30;;;;;;;84.10;61.30;;;;;;;4.96;100.00;98333.34;108989;1256;60347;-74
2024/02/27 00:28:56;;;;;;;86.90;63.60;;;;;;;4.95;100.00;98329.52;109147;1255;67833;-73
2024/02/27 00:31:23;;;;;;;85.50;65.60;;;;;;;4.93;100.00;98331.17;109168;1255;60112;-73
2024/02/27 00:33:50;;;;;;;86.00;63.90;;;;;;;4.93;100.00;98332.09;109174;1255;65012;-74
2024/02/27 00:36:16;;;;;;;84.90;62.40;;;;;;;4.93;100.00;98337.00;109173;1255;59888;-74
2024/02/27 00:38:43;;;;;;;85.00;64.30;;;;;;;4.91;100.00;98337.45;109179;1256;59691;-74
2024/02/27 00:41:10;;;;;;;87.30;66.60;;;;;;;4.91;100.00;98331.46;108981;1256;67886;-74
2024/02/27 00:43:36;;;;;;;88.00;65.10;;;;;;;4.92;100.00;98334.23;109206;1255;61560;-74
2024/02/27 00:46:03;;;;;;;86.20;62.20;;;;;;;4.92;100.00;98335.63;109159;1259;65397;-73
2024/02/27 00:48:29;;;;;;;90.80;66.30;;;;;;;4.90;100.00;98332.08;108936;1255;59857;-75
2024/02/27 00:50:56;;;;;;;88.60;65.10;;;;;;;4.89;100.00;98332.98;109141;1256;59846;-74
2024/02/27 00:53:23;;;;;;;93.40;67.20;;;;;;;4.90;100.00;98326.76;109123;1256;67972;-74
2024/02/27 00:55:49;;;;;;;97.30;73.60;;;;;;;4.91;100.00;98321.45;109177;1255;60070;-74
2024/02/27 00:58:16;;;;;;;104.40;74.10;;;;;;;4.91;100.00;98323.41;108929;1256;62820;-73
2024/02/27 01:00:43;;;;;;;97.10;73.40;;;;;;;4.92;100.00;98324.23;109157;1255;59864;-74
2024/02/27 01:03:09;;;;;;;95.70;69.40;;;;;;;4.94;100.00;98327.11;109161;1256;59873;-73
2024/02/27 01:05:36;;;;;;;98.90;71.20;;;;;;;4.98;100.00;98327.05;109171;1257;67848;-74
2024/02/27 01:08:03;;;;;;;93.20;66.40;;;;;;;5.05;100.00;98329.86;109179;1255;59880;-74
2024/02/27 01:10:29;;;;;;;97.90;71.90;;;;;;;5.11;100.00;98328.27;109141;1255;63684;-75
2024/02/27 01:12:56;;;;;;;94.00;68.50;;;;;;;5.15;100.00;98324.00;108935;1255;59830;-74
2024/02/27 01:15:23;;;;;;;92.40;68.70;;;;;;;5.17;100.00;98323.36;109174;1256;60099;-74
2024/02/27 01:17:50;;;;;;;96.60;70.50;;;;;;;5.19;100.00;98324.45;108971;1256;67796;-74
2024/02/27 01:20:16;;;;;;;100.50;72.20;;;;;;;5.23;100.00;98326.70;109236;1256;60990;-74
2024/02/27 01:22:44;;;;;;;98.90;73.40;;;;;;;5.24;100.00;98331.57;108920;1256;64250;-74
2024/02/27 01:25:12;;;;;;;99.10;72.60;;;;;;;5.28;100.00;98326.80;109193;1256;59805;-74
2024/02/27 01:27:39;;;;;;;91.10;66.50;;;;;;;5.31;100.00;98328.59;109191;1256;59772;-75
2024/02/27 01:30:06;;;;;;;96.90;71.80;;;;;;;5.33;100.00;98325.10;109186;1256;67748;-74
2024/02/27 01:32:33;;;;;;;94.80;69.00;;;;;;;5.41;100.00;98325.89;109116;1255;61267;-73
2024/02/27 01:34:59;;;;;;;93.60;69.60;;;;;;;5.50;100.00;98332.43;109180;1256;65218;-74
2024/02/27 01:37:26;;;;;;;91.00;66.40;;;;;;;5.56;100.00;98335.26;109170;1256;59784;-75
2024/02/27 01:39:52;;;;;;;88.10;64.00;;;;;;;5.65;100.00;98333.17;109179;1255;60642;-74
2024/02/27 01:42:19;;;;;;;90.30;66.30;;;;;;;5.76;100.00;98330.42;109178;1256;66780;-74
2024/02/27 01:44:51;;;;;;;93.70;72.00;;;;;;;5.81;100.00;98334.87;108998;1256;61056;-74
2024/02/27 01:47:19;;;;;;;94.30;74.40;;;;;;;5.82;100.00;98331.83;109137;1255;65111;-74
2024/02/27 01:49:49;;;;;;;91.10;69.90;;;;;;;5.83;100.00;98328.55;109134;1256;59860;-73
2024/02/27 01:52:18;;;;;;;87.60;68.90;;;;;;;5.86;100.00;98321.22;109146;1256;59784;-74
2024/02/27 01:54:46;;;;;;;93.90;70.10;;;;;;;5.85;100.00;98320.88;109182;1256;67027;-73
2024/02/27 01:57:15;;;;;;;88.70;67.40;;;;;;;5.83;100.00;98324.35;109137;1256;60036;-74
2024/02/27 01:59:42;;;;;;;86.40;65.30;;;;;;;5.81;100.00;98331.00;109174;1255;65254;-73
2024/02/27 02:02:09;;;;;;;83.60;64.70;;;;;;;5.78;100.00;98338.40;109157;1255;59870;-74
2024/02/27 02:04:36;;;;;;;87.40;63.00;;;;;;;5.78;100.00;98345.97;109160;1256;59846;-73
2024/02/27 02:07:02;;;;;;;87.80;63.40;;;;;;;5.80;100.00;98345.19;109191;1255;67812;-73
2024/02/27 02:09:29;;;;;;;90.20;67.50;;;;;;;5.81;100.00;98348.09;109207;1256;60096;-74
2024/02/27 02:11:57;;;;;;;83.50;61.60;;;;;;;5.82;100.00;98351.94;109174;1255;65115;-73
2024/02/27 02:14:25;;;;;;;81.50;61.40;;;;;;;5.84;100.00;98353.71;109161;1256;59809;-74
2024/02/27 02:16:52;;;;;;;83.70;61.00;;;;;;;5.89;100.00;98350.48;109167;1256;59653;-73
2024/02/27 02:19:18;;;;;;;83.00;62.20;;;;;;;5.93;100.00;98353.39;109169;1256;66824;-73
2024/02/27 02:21:49;;;;;;;84.00;63.30;;;;;;;5.94;100.00;98351.77;108971;1256;60593;-75
2024/02/27 02:24:18;;;;;;;86.70;61.70;;;;;;;5.97;100.00;98350.41;109156;1256;64146;-74
2024/02/27 02:26:46;;;;;;;85.90;60.70;;;;;;;6.01;100.00;98352.10;109146;1258;59746;-74
2024/02/27 02:29:12;;;;;;;80.00;58.70;;;;;;;6.06;100.00;98355.15;109205;1257;59835;-73
2024/02/27 02:31:39;;;;;;;78.10;60.40;;;;;;;6.07;100.00;98362.48;109183;1256;68251;-73
2024/02/27 02:34:06;;;;;;;82.30;59.60;;;;;;;6.06;100.00;98366.75;109196;1256;60803;-74
2024/02/27 02:36:32;;;;;;;81.30;59.50;;;;;;;6.05;100.00;98366.13;109211;1256;65288;-74
2024/02/27 02:38:59;;;;;;;81.70;60.80;;;;;;;6.02;100.00;98368.92;109158;1256;60045;-74
2024/02/27 02:41:25;;;;;;;87.00;62.50;;;;;;;6.01;100.00;98365.16;109196;1255;59828;-74
2024/02/27 02:43:52;;;;;;;86.10;62.30;;;;;;;6.01;100.00;98364.64;109149;1256;67940;-74
2024/02/27 02:46:19;;;;;;;81.50;60.80;;;;;;;6.01;100.00;98364.97;109184;1256;60170;-75
2024/02/27 02:48:45;;;;;;;83.50;63.60;;;;;;;6.00;100.00;98371.36;109157;1256;63997;-75
2024/02/27 02:51:12;;;;;;;80.90;61.00;;;;;;;5.98;100.00;98370.77;109182;1256;60611;-74
2024/02/27 02:53:38;;;;;;;79.10;60.80;;;;;;;5.97;100.00;98370.83;109265;1256;59831;-74
2024/02/27 02:56:05;;;;;;;83.20;62.90;;;;;;;5.97;100.00;98374.91;109226;1256;67839;-74
2024/02/27 02:58:32;;;;;;;83.30;62.60;;;;;;;5.97;100.00;98378.23;108936;1260;60127;-75
2024/02/27 03:00:59;;;;;;;77.60;61.00;;;;;;;5.99;100.00;98380.42;109147;1257;65115;-73
2024/02/27 03:03:25;;;;;;;85.70;61.90;;;;;;;6.01;100.00;98384.71;109153;1256;59955;-75
2024/02/27 03:05:52;;;;;;;75.90;59.40;;;;;;;6.01;100.00;98385.73;109172;1257;60107;-73
2024/02/27 03:08:19;;;;;;;82.70;61.50;;;;;;;6.01;100.00;98394.92;109090;1260;67848;-73
2024/02/27 03:10:45;;;;;;;77.90;60.30;;;;;;;6.02;100.00;98391.69;109203;1256;61282;-75
2024/02/27 03:13:12;;;;;;;73.50;56.10;;;;;;;6.04;100.00;98388.39;109144;1256;64796;-75
2024/02/27 03:15:39;;;;;;;80.70;60.30;;;;;;;6.03;100.00;98385.98;109150;1256;59827;-74
2024/02/27 03:18:05;;;;;;;75.30;57.60;;;;;;;6.03;100.00;98389.16;109130;1259;60130;-74
2024/02/27 03:20:32;;;;;;;75.80;57.00;;;;;;;6.04;100.00;98387.50;109191;1256;67883;-74
2024/02/27 03:22:58;;;;;;;79.80;59.80;;;;;;;6.05;100.00;98386.03;109087;1257;61028;-74
2024/02/27 03:25:25;;;;;;;77.60;60.50;;;;;;;6.05;100.00;98381.63;109158;1258;63769;-73
2024/02/27 03:27:52;;;;;;;75.30;59.50;;;;;;;6.04;100.00;98380.43;109155;1256;59845;-74
2024/02/27 03:30:18;;;;;;;78.60;60.20;;;;;;;6.06;100.00;98386.91;109167;1257;59788;-74
2024/02/27 03:32:45;;;;;;;74.80;57.80;;;;;;;6.08;100.00;98383.38;109135;1260;66455;-74
2024/02/27 03:35:12;;;;;;;73.30;54.50;;;;;;;6.11;100.00;98384.61;109157;1257;61088;-73
2024/02/27 03:37:39;;;;;;;78.00;56.20;;;;;;;6.15;100.00;98390.58;109137;1256;65155;-74
2024/02/27 03:40:09;;;;;;;74.20;55.10;;;;;;;6.19;100.00;98394.58;109154;1260;59783;-75
2024/02/27 03:42:36;;;;;;;69.30;55.60;;;;;;;6.23;100.00;98400.18;109153;1258;59821;-75
2024/02/27 03:45:03;;;;;;;69.30;54.50;;;;;;;6.26;100.00;98399.12;109150;1256;66846;-74
2024/02/27 03:47:30;;;;;;;69.60;54.60;;;;;;;6.28;100.00;98400.77;109190;1257;60724;-73
2024/02/27 03:49:56;;;;;;;70.30;55.30;;;;;;;6.30;100.00;98402.59;109136;1256;64216;-73
2024/02/27 03:52:23;;;;;;;69.70;52.70;;;;;;;6.31;100.00;98398.63;109122;1256;59818;-74
2024/02/27 03:54:49;;;;;;;68.50;53.00;;;;;;;6.33;100.00;98394.27;109162;1257;59946;-74
2024/02/27 03:57:16;;;;;;;75.10;61.70;;;;;;;6.34;100.00;98400.40;109181;1256;66896;-74
2024/02/27 03:59:43;;;;;;;74.00;55.00;;;;;;;6.33;100.00;98399.91;109177;1256;61023;-74
2024/02/27 04:02:09;;;;;;;66.30;51.90;;;;;;;6.33;100.00;98402.05;109155;1256;65191;-74
2024/02/27 04:04:36;;;;;;;74.20;56.00;;;;;;;6.32;100.00;98403.14;109075;1258;59823;-74
2024/02/27 04:07:02;;;;;;;72.70;54.30;;;;;;;6.32;100.00;98408.08;109170;1255;59705;-74
2024/02/27 04:09:29;;;;;;;68.90;54.20;;;;;;;6.31;100.00;98408.51;109179;1257;67396;-74
2024/02/27 04:11:56;;;;;;;69.80;54.00;;;;;;;6.29;100.00;98407.38;109166;1256;60170;-74
2024/02/27 04:14:22;;;;;;;70.70;56.00;;;;;;;6.29;100.00;98410.39;109172;1257;64004;-75
2024/02/27 04:16:49;;;;;;;73.10;55.00;;;;;;;6.27;100.00;98414.42;109115;1257;59759;-74
2024/02/27 04:19:15;;;;;;;71.30;53.50;;;;;;;6.24;100.00;98411.77;109172;1256;59686;-74
2024/02/27 04:21:42;;;;;;;70.30;54.70;;;;;;;6.20;100.00;98413.39;108957;1257;67409;-75
2024/02/27 04:24:09;;;;;;;70.40;54.40;;;;;;;6.17;100.00;98410.94;109163;1258;60161;-73
2024/02/27 04:26:35;;;;;;;75.60;57.00;;;;;;;6.12;100.00;98408.75;109169;1257;65068;-75
2024/02/27 04:29:02;;;;;;;71.50;54.80;;;;;;;6.09;100.00;98407.69;109156;1257;60088;-73
2024/02/27 04:31:29;;;;;;;67.50;53.20;;;;;;;6.07;100.00;98406.06;109143;1257;59672;-74
2024/02/27 04:33:55;;;;;;;66.70;50.30;;;;;;;6.05;100.00;98406.00;108985;1256;67818;-74
2024/02/27 04:36:22;;;;;;;66.50;51.20;;;;;;;6.05;100.00;98401.91;109176;1256;60418;-74
2024/02/27 04:38:49;;;;;;;70.30;51.90;;;;;;;6.04;100.00;98400.59;109168;1256;65078;-75
2024/02/27 04:41:16;;;;;;;66.20;50.40;;;;;;;6.03;100.00;98397.10;109181;1257;59844;-73
2024/02/27 04:43:42;;;;;;;65.10;50.00;;;;;;;6.02;100.00;98399.42;109189;1256;59843;-75
2024/02/27 04:46:09;;;;;;;66.00;50.70;;;;;;;6.03;100.00;98401.00;109151;1256;67764;-74
2024/02/27 04:48:35;;;;;;;63.60;49.90;;;;;;;6.04;100.00;98408.53;109170;1255;60112;-74
2024/02/27 04:51:02;;;;;;;67.60;55.00;;;;;;;6.03;100.00;98413.67;109005;1257;64266;-74
2024/02/27 04:53:29;;;;;;;73.50;57.70;;;;;;;6.03;100.00;98412.44;109135;1256;59930;-74
2024/02/27 04:55:55;;;;;;;73.30;56.30;;;;;;;6.03;100.00;98412.29;109158;1255;59757;-75
2024/02/27 04:58:22;;;;;;;62.30;49.70;;;;;;;6.03;100.00;98417.74;109195;1256;67818;-74
2024/02/27 05:00:48;;;;;;;71.00;54.30;;;;;;;6.08;100.00;98421.48;109184;1256;61064;-74
2024/02/27 05:03:15;;;;;;;71.60;55.90;;;;;;;6.14;100.00;98417.27;109157;1256;65216;-74
2024/02/27 05:05:42;;;;;;;66.10;50.90;;;;;;;6.18;100.00;98417.20;109143;1256;60093;-74
2024/02/27 05:08:09;;;;;;;68.60;53.20;;;;;;;6.22;100.00;98422.09;109162;1257;59957;-73
2024/02/27 05:10:35;;;;;;;63.00;48.90;;;;;;;6.26;100.00;98433.00;109169;1256;68041;-73
2024/02/27 05:13:02;;;;;;;58.20;46.60;;;;;;;6.28;100.00;98437.24;109202;1256;61006;-74
2024/02/27 05:15:29;;;;;;;61.70;49.50;;;;;;;6.31;100.00;98434.60;109155;1256;64309;-73
2024/02/27 05:17:56;;;;;;;62.00;48.70;;;;;;;6.35;100.00;98435.27;109170;1257;59734;-74
2024/02/27 05:20:22;;;;;;;61.50;47.80;;;;;;;6.39;100.00;98434.31;109240;1256;59830;-74
2024/02/27 05:22:49;;;;;;;61.80;47.90;;;;;;;6.43;100.00;98434.11;109247;1257;66827;-73
2024/02/27 05:25:15;;;;;;;60.70;47.90;;;;;;;6.48;100.00;98433.63;109067;1256;59892;-73
2024/02/27 05:27:42;;;;;;;58.90;46.90;;;;;;;6.53;100.00;98434.89;109269;1257;65081;-73
2024/02/27 05:30:09;;;;;;;65.30;50.40;;;;;;;6.57;100.00;98435.19;109178;1256;59847;-73
2024/02/27 05:32:37;;;;;;;64.80;48.60;;;;;;;6.63;100.00;98437.02;109181;1256;59647;-73
2024/02/27 05:35:05;;;;;;;70.00;54.10;;;;;;;6.67;100.00;98435.83;109167;1256;66845;-73
2024/02/27 05:37:31;;;;;;;66.90;52.70;;;;;;;6.71;100.00;98435.75;108918;1256;61199;-75
2024/02/27 05:39:58;;;;;;;63.20;50.80;;;;;;;6.76;100.00;98442.89;109186;1257;66102;-73
2024/02/27 05:42:25;;;;;;;67.50;53.50;;;;;;;6.79;100.00;98444.29;109145;1257;59866;-73
2024/02/27 05:44:52;;;;;;;62.50;51.20;;;;;;;6.82;100.00;98448.38;108973;1257;60042;-72
2024/02/27 05:47:18;;;;;;;60.00;49.70;;;;;;;6.85;100.00;98449.27;109166;1256;67978;-74
2024/02/27 05:49:45;;;;;;;61.10;47.90;;;;;;;6.87;100.00;98449.48;109222;1256;59945;-74
2024/02/27 05:52:11;;;;;;;59.30;47.40;;;;;;;6.89;100.00;98448.81;109128;1257;64059;-74
2024/02/27 05:54:38;;;;;;;65.00;48.50;;;;;;;6.91;100.00;98456.30;109163;1256;60041;-74
2024/02/27 05:57:05;;;;;;;59.00;48.40;;;;;;;6.93;100.00;98455.27;109175;1257;59853;-74
2024/02/27 05:59:32;;;;;;;60.00;49.50;;;;;;;6.95;100.00;98459.56;109160;1257;67865;-74
2024/02/27 06:01:59;;;;;;;60.00;48.90;;;;;;;6.97;100.00;98463.86;109162;1255;60045;-75
2024/02/27 06:04:25;;;;;;;65.00;52.10;;;;;;;6.99;100.00;98468.70;109153;1257;64899;-74
2024/02/27 06:06:52;;;;;;;63.90;48.90;;;;;;;7.01;100.00;98468.02;109172;1257;59833;-75
2024/02/27 06:09:18;;;;;;;60.60;47.80;;;;;;;7.04;100.00;98468.60;109005;1256;59897;-74
2024/02/27 06:11:45;;;;;;;60.80;48.40;;;;;;;7.06;100.00;98463.14;109190;1256;68068;-74
2024/02/27 06:14:13;;;;;;;56.00;44.70;;;;;;;7.10;100.00;98461.54;109208;1255;60095;-74
2024/02/27 06:16:40;;;;;;;60.60;46.70;;;;;;;7.13;100.00;98458.53;109175;1255;65180;-75
2024/02/27 06:19:07;;;;;;;56.80;44.90;;;;;;;7.17;100.00;98464.46;109178;1255;59723;-74
2024/02/27 06:24:18;;;;;;;57.40;43.40;;;;;;;7.23;100.00;98474.85;109152;1256;66850;-75
2024/02/27 06:26:45;;;;;;;55.70;44.10;;;;;;;7.25;100.00;98478.38;109185;1255;59799;-75
2024/02/27 06:29:12;;;;;;;58.40;45.50;;;;;;;7.29;100.00;98479.77;109177;1256;63926;-74
2024/02/27 06:31:39;;;;;;;54.60;43.10;;;;;;;7.32;100.00;98485.23;109169;1255;59839;-74
2024/02/27 06:34:06;;;;;;;56.40;43.90;;;;;;;7.35;100.00;98489.65;109204;1255;59926;-74
2024/02/27 06:36:33;;;;;;;53.10;41.70;;;;;;;7.38;100.00;98486.66;108952;1257;66772;-74
2024/02/27 06:39:00;;;;;;;49.90;40.30;;;;;;;7.40;100.00;98490.22;109193;1256;61075;-72
2024/02/27 06:41:27;;;;;;;55.30;42.70;;;;;;;7.42;100.00;98493.41;109173;1256;65256;-75
2024/02/27 06:43:54;;;;;;;49.70;41.80;;;;;;;7.44;100.00;98494.90;109182;1256;60200;-72
2024/02/27 06:46:21;;;;;;;53.10;41.90;;;;;;;7.46;100.00;98495.46;109178;1256;59827;-72
2024/02/27 06:48:48;;;;;;;52.90;41.50;;;;;;;7.48;100.00;98498.19;109003;1257;67593;-73
2024/02/27 06:51:14;;;;;;;54.60;42.50;;;;;;;7.50;100.00;98503.39;109187;1255;61165;-71
2024/02/27 06:53:42;;;;;;;54.40;42.30;;;;;;;7.53;100.00;98503.76;109175;1256;65144;-73
2024/02/27 06:56:08;;;;;;;54.80;42.80;;;;;;;7.56;100.00;98507.65;109194;1256;59849;-71
2024/02/27 06:58:35;;;;;;;54.90;42.50;;;;;;;7.59;100.00;98511.70;109197;1255;59861;-72
2024/02/27 07:01:02;;;;;;;50.40;41.70;;;;;;;7.62;100.00;98514.12;109174;1256;67846;-72
2024/02/27 07:03:28;;;;;;;53.20;41.80;;;;;;;7.66;100.00;98514.77;109212;1255;60176;-72
2024/02/27 07:05:57;;;;;;;53.20;42.90;;;;;;;7.70;100.00;98511.00;109182;1255;65126;-72
2024/02/27 07:08:24;;;;;;;52.10;40.10;;;;;;;7.76;100.00;98511.49;109175;1255;59819;-72
2024/02/27 07:10:50;;;;;;;52.20;40.70;;;;;;;7.82;100.00;98509.50;109159;1256;59820;-72
2024/02/27 07:13:17;;;;;;;52.70;41.60;;;;;;;7.87;100.00;98511.98;109191;1255;67835;-72
2024/02/27 07:15:44;;;;;;;48.30;40.00;;;;;;;7.93;100.00;98508.08;109186;1255;61029;-72
2024/02/27 07:18:15;;;;;;;54.20;43.30;;;;;;;8.00;100.00;98508.36;109140;1255;64050;-72
2024/02/27 07:20:45;;;;;;;55.80;43.60;;;;;;;8.07;100.00;98510.73;109139;1255;59935;-71
2024/02/27 07:23:13;;;;;;;;;;;;;;;8.16;100.00;98513.52;109233;1256;59764;-71
2024/02/27 07:25:40;;;;;;;50.20;40.90;;;;;;;8.24;100.00;98513.19;109222;1256;67631;-72
2024/02/27 07:28:06;;;;;;;58.60;48.00;;;;;;;8.34;100.00;98517.48;109185;1256;60036;-72
2024/02/27 07:30:34;;;;;;;51.70;44.10;;;;;;;8.47;100.00;98517.02;109197;1255;65464;-72
2024/02/27 07:33:00;;;;;;;54.20;45.10;;;;;;;8.61;100.00;98521.41;109168;1256;59822;-73
2024/02/27 07:35:27;;;;;;;51.80;43.80;;;;;;;8.73;100.00;98519.15;109206;1256;59697;-73
2024/02/27 07:37:54;;;;;;;54.90;45.40;;;;;;;8.86;100.00;98518.46;109186;1255;66555;-72
2024/02/27 07:40:20;;;;;;;58.00;48.50;;;;;;;8.98;100.00;98519.60;109215;1256;60999;-72
2024/02/27 07:42:47;;;;;;;62.80;53.00;;;;;;;9.11;100.00;98521.05;109190;1256;65014;-72
2024/02/27 07:45:15;;;;;;;61.30;50.60;;;;;;;9.24;100.00;98522.11;109149;1255;59864;-73
2024/02/27 07:47:42;;;;;;;51.00;45.20;;;;;;;9.38;100.00;98522.55;109231;1255;59671;-71
2024/02/27 07:50:09;;;;;;;45.00;37.80;;;;;;;9.54;100.00;98522.48;109211;1256;67064;-72
2024/02/27 07:52:36;;;;;;;48.70;39.20;;;;;;;9.70;100.00;98522.30;109217;1255;60017;-73
2024/02/27 07:55:03;;;;;;;43.30;37.90;;;;;;;9.81;100.00;98521.81;109155;1255;63738;-72
2024/02/27 07:57:29;;;;;;;46.80;38.10;;;;;;;9.94;100.00;98524.26;109176;1256;59821;-72
2024/02/27 07:59:56;;;;;;;47.00;38.40;;;;;;;10.07;100.00;98526.72;109204;1256;59856;-72
2024/02/27 08:02:23;;;;;;;42.90;37.80;;;;;;;10.18;100.00;98527.16;108935;1256;66843;-73
2024/02/27 08:04:52;;;;;;;47.00;37.50;;;;;;;10.26;100.00;98528.84;109182;1256;59883;-72
2024/02/27 08:07:18;;;;;;;44.10;36.70;;;;;;;10.33;100.00;98531.95;109190;1256;64045;-72
2024/02/27 08:09:45;;;;;;;42.00;34.70;;;;;;;10.37;100.00;98533.93;109006;1256;59841;-72
2024/02/27 08:12:12;;;;;;;46.00;35.70;;;;;;;10.42;100.00;98533.42;109216;1256;59712;-72
2024/02/27 08:14:38;;;;;;;39.60;34.10;;;;;;;10.49;100.00;98539.45;109217;1256;67691;-74
2024/02/27 08:17:05;;;;;;;43.60;34.40;;;;;;;10.56;100.00;98540.57;109191;1255;60777;-73
2024/02/27 08:19:33;;;;;;;39.60;34.50;;;;;;;10.61;100.00;98536.11;108966;1255;64322;-73
2024/02/27 08:22:03;;;;;;;39.00;34.00;;;;;;;10.63;100.00;98532.38;109165;1255;59920;-72
2024/02/27 08:24:31;;;;;;;39.20;33.90;;;;;;;10.64;100.00;98536.27;109268;1255;59811;-71
2024/02/27 08:26:58;;;;;;;42.50;34.00;;;;;;;10.61;100.00;98538.20;109166;1255;66820;-72
2024/02/27 08:29:25;;;;;;;39.60;33.30;;;;;;;10.64;100.00;98541.77;109235;1255;59763;-71
2024/02/27 08:31:51;;;;;;;41.40;33.90;;;;;;;10.67;100.00;98545.40;109172;1255;64005;-72
2024/02/27 08:34:18;;;;;;;38.00;32.30;;;;;;;10.71;100.00;98542.77;109195;1255;59764;-71
2024/02/27 08:36:45;;;;;;;41.00;34.10;;;;;;;10.78;100.00;98551.52;109207;1256;60030;-71
2024/02/27 08:39:11;;;;;;;39.00;32.60;;;;;;;10.86;100.00;98550.03;109210;1255;67913;-72
2024/02/27 08:41:38;;;;;;;37.90;33.80;;;;;;;10.93;100.00;98547.92;109227;1255;61069;-72
2024/02/27 08:44:05;;;;;;;38.60;33.30;;;;;;;11.04;100.00;98547.82;109198;1256;64802;-73
2024/02/27 08:46:31;;;;;;;38.40;34.10;;;;;;;11.15;100.00;98548.35;109193;1255;59798;-72
2024/02/27 08:48:59;;;;;;;40.30;33.20;;;;;;;11.28;100.00;98549.14;109247;1255;59781;-71
2024/02/27 08:51:26;;;;;;;39.90;34.90;;;;;;;11.48;100.00;98550.65;109173;1255;67794;-72
2024/02/27 08:53:52;;;;;;;38.50;33.90;;;;;;;11.72;100.00;98546.27;109216;1255;60287;-71
2024/02/27 08:56:19;;;;;;;35.80;32.00;;;;;;;11.98;100.00;98542.27;109173;1256;64044;-72
2024/02/27 08:58:45;;;;;;;34.70;30.50;;;;;;;12.21;100.00;98541.08;109191;1255;59738;-71
2024/02/27 09:01:13;;;;;;;34.40;29.70;;;;;;;12.34;100.00;98539.17;109195;1255;59943;-72
2024/02/27 09:03:41;;;;;;;32.10;28.80;;;;;;;12.41;100.00;98542.52;109210;1256;67974;-72
2024/02/27 09:06:09;;;;;;;33.30;29.60;;;;;;;12.43;100.00;98542.04;109247;1256;60085;-71
2024/02/27 09:08:36;;;;;;;32.90;28.60;;;;;;;12.46;100.00;98537.89;109200;1255;64759;-71
2024/02/27 09:11:03;;;;;;;31.00;27.10;;;;;;;12.49;100.00;98539.19;109069;1256;59874;-71
2024/02/27 09:13:29;;;;;;;31.80;28.30;;;;;;;12.56;100.00;98540.77;109246;1255;59713;-71
2024/02/27 09:15:56;;;;;;;33.50;28.30;;;;;;;12.67;100.00;98543.81;109226;1255;68128;-71
2024/02/27 09:18:22;;;;;;;31.00;27.60;;;;;;;12.80;100.00;98548.05;109033;1256;60267;-71
2024/02/27 09:20:49;;;;;;;31.50;28.20;;;;;;;12.93;100.00;98542.35;109217;1255;65126;-72
2024/02/27 09:23:18;;;;;;;33.10;27.80;;;;;;;13.06;100.00;98532.01;109176;1256;59844;-72
2024/02/27 09:25:45;;;;;;;36.80;32.50;;;;;;;13.16;100.00;98531.10;109237;1255;59692;-72
2024/02/27 09:28:13;;;;;;;43.60;38.60;;;;;;;13.27;100.00;98530.04;109222;1255;67920;-72
2024/02/27 09:30:41;;;;;;;39.30;35.00;;;;;;;13.41;100.00;98533.50;109217;1255;59856;-71
2024/02/27 09:33:07;;;;;;;32.50;26.70;;;;;;;13.53;100.00;98529.77;109223;1255;65273;-72
2024/02/27 09:35:34;;;;;;;27.60;24.80;;;;;;;13.63;100.00;98529.06;109207;1255;59833;-71
2024/02/27 09:38:02;;;;;;;26.60;23.80;;;;;;;13.73;100.00;98526.66;109009;1256;59818;-71
2024/02/27 09:40:29;;;;;;;27.30;23.90;;;;;;;13.81;100.00;98527.00;109223;1255;67856;-72
2024/02/27 09:43:01;;;;;;;29.60;26.60;;;;;;;13.89;100.00;98528.64;109228;1255;61285;-72
2024/02/27 09:45:28;;;;;;;26.80;24.00;;;;;;;14.00;100.00;98530.70;109206;1255;64316;-72
2024/02/27 09:47:57;;;;;;;25.30;22.60;;;;;;;14.10;100.00;98529.77;109198;1255;59808;-72
2024/02/27 09:50:25;;;;;;;24.80;22.10;;;;;;;14.20;100.00;98527.26;109226;1255;59832;-71
2024/02/27 09:52:52;;;;;;;25.20;22.60;;;;;;;14.30;100.00;98525.67;109255;1255;67904;-72
2024/02/27 09:55:20;;;;;;;26.40;23.60;;;;;;;14.40;100.00;98528.90;109226;1255;60942;-72
2024/02/27 09:57:50;;;;;;;29.00;23.50;;;;;;;14.52;100.00;98528.55;109227;1255;64202;-71
2024/02/27 10:00:17;;;;;;;24.10;21.40;;;;;;;14.64;100.00;98524.80;109192;1255;59776;-72
2024/02/27 10:02:53;;;;;;;22.90;19.70;;;;;;;14.76;100.00;98523.50;109263;1255;60062;-72
2024/02/27 10:05:21;;;;;;;20.70;18.70;;;;;;;14.96;100.00;98526.97;109255;1255;67689;-72
2024/02/27 10:07:50;;;;;;;22.00;19.70;;;;;;;15.21;100.00;98528.10;109252;1255;61048;-73
2024/02/27 10:10:17;;;;;;;21.70;19.60;;;;;;;15.40;100.00;98532.70;109201;1255;64102;-72
2024/02/27 10:12:44;;;;;;;22.80;20.30;;;;;;;15.56;100.00;98528.77;109196;1255;59767;-72
2024/02/27 10:15:10;;;;;;;23.20;19.30;;;;;;;15.67;100.00;98532.00;109209;1255;59723;-73
2024/02/27 10:17:38;;;;;;;23.20;20.80;;;;;;;15.76;100.00;98533.48;109221;1255;68084;-72
2024/02/27 10:20:10;;;;;;;22.80;20.40;;;;;;;15.89;100.00;98530.42;109216;1255;60856;-72
2024/02/27 10:22:39;;;;;;;22.00;19.60;;;;;;;16.04;100.00;98524.38;109234;1255;64861;-72
2024/02/27 10:25:10;;;;;;;23.80;21.40;;;;;;;16.12;100.00;98528.41;109166;1255;60149;-71
2024/02/27 10:27:42;;;;;;;21.20;18.00;;;;;;;16.17;100.00;98530.36;109218;1255;60116;-73
2024/02/27 10:30:10;;;;;;;20.90;18.70;;;;;;;16.23;100.00;98531.95;109220;1255;76265;-72
2024/02/27 10:32:40;;;;;;;20.80;18.80;;;;;;;16.27;100.00;98528.59;108886;1256;60890;-72
2024/02/27 10:35:07;;;;;;;23.00;20.60;;;;;;;16.30;100.00;98526.31;109015;1256;64074;-71
2024/02/27 10:37:35;;;;;;;21.00;18.90;;;;;;;16.32;100.00;98527.39;108936;1256;60077;-72
2024/02/27 10:40:06;;;;;;;22.50;20.30;;;;;;;16.31;100.00;98525.10;109242;1255;59798;-72
2024/02/27 10:42:33;;;;;;;25.60;20.00;;;;;;;16.33;100.00;98522.08;109221;1255;66877;-73
2024/02/27 10:45:00;;;;;;;20.80;18.60;;;;;;;16.37;100.00;98519.27;109215;1255;59891;-72
2024/02/27 10:47:27;;;;;;;22.50;19.20;;;;;;;16.41;100.00;98518.73;109171;1255;64026;-71
2024/02/27 10:49:54;;;;;;;20.20;17.50;;;;;;;16.45;100.00;98512.75;109201;1255;60866;-73
2024/02/27 10:52:26;;;;;;;21.00;18.80;;;;;;;16.53;100.00;98513.81;109213;1255;59749;-73
2024/02/27 10:54:55;;;;;;;21.90;19.60;;;;;;;16.65;100.00;98512.95;109234;1255;67868;-72
2024/02/27 10:57:21;;;;;;;24.70;22.20;;;;;;;16.72;100.00;98510.31;109189;1255;61449;-73
2024/02/27 10:59:51;;;;;;;24.10;21.10;;;;;;;16.63;100.00;98506.88;109205;1255;64754;-73
2024/02/27 11:02:19;;;;;;;25.10;21.50;;;;;;;16.56;100.00;98507.45;109204;1255;60347;-71
2024/02/27 11:04:47;;;;;;;28.20;24.10;;;;;;;16.60;100.00;98510.56;109190;1256;59877;-72
2024/02/27 11:07:16;;;;;;;28.30;23.90;;;;;;;16.72;100.00;98515.38;109217;1255;67584;-71
2024/02/27 11:09:49;;;;;;;29.70;26.10;;;;;;;16.82;100.00;98512.94;109227;1255;61102;-72